Terminal Aerodrome Forecast
Issued by NWS

Home | Current Version | Previous Version | Text Only | Print | Product List | Glossary On
Versions: 1 2 3 4 5 6 7 8 9 10 11 12 13 14 15 16 17 18 19 20
000
FTUS41 KBOX 190305 AAA
TAFACK
TAF AMD
KACK 190305Z 1903/1924 05010KT 3SM -DZ BR OVC008
     FM190900 01010KT P6SM OVC015
     FM191300 35009KT P6SM OVC025
     FM191700 31008KT P6SM BKN035
     FM192200 32006KT P6SM SCT090=

USA.gov is the U.S. government's official web portal to all federal, state and local government web resources and services.